METAR Data
IDs: Format: Raw Decoded Include TAF

Data at: 0112 UTC 25 Mar 2019

KFOD 250056Z AUTO 03005KT 10SM OVC025 08/06 A3012 RMK AO2 SLP233 T00780061
KFOD 242356Z AUTO 05006KT 10SM OVC019 08/07 RMK AO2 SLPNO 60000 T00830067 10083 20061 $
KFOD 242327Z AUTO 05007KT 10SM OVC015 08/07 A3009 RMK AO2
KFOD 242317Z AUTO 06009KT 10SM OVC013 08/07 A3009 RMK AO2
KFOD 242256Z AUTO 06008KT 10SM OVC015 08/07 A3008 RMK AO2 SLP220 T00830067
KFOD 242156Z AUTO 05006KT 9SM OVC015 08/07 A3006 RMK AO2 SLP215 T00780067
KFOD 242133Z AUTO 05007KT 8SM SCT008 OVC015 08/07 A3006 RMK AO2
KFOD 242125Z AUTO 05008KT 7SM BKN010 OVC015 08/06 A3006 RMK AO2 CIG 007V013
KFOD 242056Z AUTO 05008KT 6SM BR OVC006 07/06 A3005 RMK AO2 RAB10E31 CIG 006V010 SLP209 P0000 60000 T00720061 53003
KFOD 241956Z AUTO 06012KT 4SM BR OVC006 07/06 A3003 RMK AO2 RAE02 SLP203 P0000 T00720061
KFOD 241937Z AUTO 05009KT 3SM BR OVC004 07/06 A3003 RMK AO2 RAE02 P0000
KFOD 241927Z AUTO 05010KT 2 1/2SM BR OVC004 07/06 A3003 RMK AO2 RAE02 P0000
KFOD 241856Z AUTO 03008KT 1 1/4SM -RA BR OVC004 06/06 A3004 RMK AO2 RAB1759 SLP207 P0000 T00610056
KFOD 241837Z AUTO 03008KT 1SM -RA BR OVC004 06/06 A3004 RMK AO2 RAB1759 P0000 RVRNO
KFOD 241829Z AUTO 03010KT 1 1/4SM -RA BR OVC004 06/06 A3004 RMK AO2 RAB1759 P0000
KFOD 241756Z AUTO 03007KT 2 1/2SM BR OVC004 06/06 A3004 RMK AO2 SLP206 6//// T00610056 10061 20039 53001
KFOD 241753Z AUTO 04007KT 2 1/2SM BR OVC004 06/06 A3004 RMK AO2
KFOD 241656Z AUTO 05007KT 1 3/4SM BR OVC004 06/06 A3003 RMK AO2 RAE10 SLP204 P0000 T00610056
KFOD 241556Z AUTO 04007KT 1 1/2SM -RA BR OVC004 06/06 A3003 RMK AO2 RAB46 SLP205 P0000 T00610056
KFOD 241543Z AUTO 06007KT 1 3/4SM BR OVC004 06/06 A3004 RMK AO2
KFOD 241536Z AUTO 07007KT 3SM BR BKN004 OVC008 06/05 RMK AO2 $
KFOD 241456Z AUTO 07008KT 4SM BR OVC008 06/05 A3002 RMK AO2 CIG 004V011 SLP200 6//// T00560050 53002
KFOD 241444Z AUTO 06009KT 4SM BR OVC006 05/04 A3001 RMK AO2 CIG 003V009
KFOD 241356Z AUTO 08008KT 3SM BR BKN004 OVC012 05/04 A3002 RMK AO2 RAB24E43 SLP199 P0000 T00500044
KFOD 241343Z AUTO 08008KT 4SM BR BKN004 OVC012 04/04 A3001 RMK AO2 RAB24E43 P0000
KFOD 241322Z AUTO 08009KT 4SM BR SCT004 OVC010 04/04 A3002 RMK AO2 CIG 007V012
KFOD 241256Z AUTO 08010KT 5SM BR BKN010 OVC023 04/04 A3001 RMK AO2 RAE55 SLP198 P0003 T00440039
KFOD 241254Z AUTO 08009KT 5SM -RA BR SCT010 OVC023 04/04 A3001 RMK AO2 P0003
KFOD 241237Z AUTO 08011KT 5SM -RA BR SCT003 BKN010 OVC021 04/04 A3001 RMK AO2 CIG 007V011 P0003
KFOD 241205Z AUTO 06010KT 4SM -RA BR OVC003 04/04 A3001 RMK AO2 P0002
KFOD 241156Z AUTO 06009KT 2 1/2SM -RA BR OVC003 04/04 A3001 RMK AO2 SLP198 P0005 6//// 7//// T00440039 10056 20044
KFOD 241056Z AUTO 07009KT 2SM -RA BR OVC003 04/04 A3001 RMK AO2 SLP195 P0001 T00440039
KFOD 241010Z AUTO 06008KT 2 1/2SM -RA BR BKN003 BKN007 OVC013 04/04 A3001 RMK AO2 P0001
KFOD 240956Z AUTO 06008KT 3SM -RA BR BKN005 OVC011 04/04 RMK AO2 CIG 003V009 SLPNO P0000 T00440044 $
KFOD 240947Z AUTO 07008KT 3SM -RA BR BKN005 OVC013 04/04 RMK AO2 CIG 003V009 P0000 $
KFOD 240932Z AUTO 06010KT 3SM -RA BR SCT005 OVC013 04/04 A3001 RMK AO2 P0000
KFOD 240921Z AUTO 06008KT 3SM -RA BR SCT003 OVC015 04/04 A3001 RMK AO2 P0000
KFOD 240856Z AUTO 08007KT 3SM -RA BR BKN003 OVC016 04/04 A3002 RMK AO2 SLP199 P0002 6//// T00440039 55008
KFOD 240851Z AUTO 08007KT 3SM -RA BR BKN005 OVC016 04/04 A3002 RMK AO2 P0001
KFOD 240836Z AUTO 08008KT 3SM -RA BR SCT005 OVC015 04/04 A3002 RMK AO2 P0001
KFOD 240828Z AUTO 08008KT 3SM -RA BR BKN015 OVC019 04/04 RMK AO2 P0001 $
KFOD 240807Z AUTO 09007KT 10SM -RA BKN013 BKN017 OVC024 05/04 A3004 RMK AO2 P0000
KFOD 240756Z AUTO 09008KT 10SM -RA SCT015 OVC024 05/04 A3004 RMK AO2 SLP205 P0000 T00500039
KFOD 240656Z AUTO 08008KT 9SM -RA OVC026 05/03 A3004 RMK AO2 RAB49 SLP206 T00500033
KFOD 240620Z AUTO 08007KT 10SM BKN030 OVC037 06/03 A3005 RMK AO2
KFOD 240613Z AUTO 08007KT 10SM BKN028 OVC037 06/03 A3005 RMK AO2
KFOD 240556Z AUTO 08009KT 10SM OVC040 06/03 RMK AO2 SLPNO 6//// T00560028 10078 20056 $
KFOD 240456Z AUTO 11005KT 10SM OVC039 07/03 A3006 RMK AO2 SLP213 T00670028 401281039
KFOD 240356Z AUTO 12009KT 10SM OVC055 07/03 A3006 RMK AO2 RAB13E40 SLP214 T00670028
KFOD 240256Z AUTO 11008KT 10SM OVC075 07/03 A3008 RMK AO2 SLP219 6//// T00670033 58003
KFOD 240156Z AUTO 10008KT 10SM BKN090 07/04 A3008 RMK AO2 SLP222 T00670039
KFOD 240056Z AUTO 12004KT 10SM SCT070 OVC090 07/04 A3009 RMK AO2 RAB2358E11 SLP227 P0000 T00720039
KFOD 232356Z AUTO 09008KT 10SM FEW060 OVC090 08/04 A3009 RMK AO2 RAE53 SLP226 P0000 60000 T00780044 10128 20078 56013
KFOD 232256Z AUTO 09007KT 10SM -RA FEW050 BKN065 OVC080 09/04 A3009 RMK AO2 RAE03B49 SLP227 P0000 T00890039
KFOD 232156Z AUTO 12008KT 10SM -RA OVC075 11/03 A3011 RMK AO2 RAB48 SLP231 P0000 T01060033
KFOD 232056Z AUTO 15010KT 10SM OVC095 11/02 A3013 RMK AO2 SLP237 T01110017 56018
KFOD 231956Z AUTO 11006KT 10SM OVC110 11/02 A3013 RMK AO2 SLP239 T01110022
KFOD 231856Z AUTO 10008KT 10SM CLR 11/01 A3015 RMK AO2 SLP247 T01110011
KFOD 231756Z AUTO 19011G17KT 10SM CLR 12/01 A3018 RMK AO2 SLP255 6//// T01170011 10117 21039 56010
KFOD 231656Z AUTO 18011KT 10SM CLR 10/00 A3018 RMK AO2 SLP257 T01000000
KFOD 231556Z AUTO 13008KT 10SM CLR 07/01 A3019 RMK AO2 SLP262 T00720011
KFOD 231456Z AUTO 12008KT 10SM CLR 05/M01 A3021 RMK AO2 SLP267 6//// T00501006 58003
KFOD 231356Z AUTO 13004KT 10SM CLR 02/01 A3022 RMK AO2 SLP270 T00220011 FZRANO